Nearby METAR Reports

 

KIAD - Wash Dc/Dulles, Virginia, USA
Distance from station: ESE 7mi, 11km
Updated: Fri, 22-Nov-2019 9:37am EST
Light rain, Overcast
Light rain, Overcast
 Wind from SSW
Wind: SSW 8 mph , 13 km/h
Temperature: 50°F , 10°C
Wind Chill: 47°F , 8°C
Dew Point: 43°F , 6°C
Humidity: 76%
Barometer: 29.87 inHg , 1011.5 hPa
Summary: Light rain
Clouds: Overcast
Visibility: 4 miles , 6 km
Cloud details: Mostly cloudy 5500 ft
Overcast 8000 ft
2019/11/22 14:37 KIAD 221437Z 20007KT 4SM -RA BKN055 OVC080 10/06 A2987 RMK AO2 RAB19 P0001 T01000056
KJYO - Leesburg/Godfrey, Virginia, USA
Distance from station: N 7mi, 12km
Updated: Fri, 22-Nov-2019 9:35am EST
Overcast
Overcast
 Wind from calm
Wind: Calm
Temperature: 46°F , 8°C
Dew Point: 43°F , 6°C
Humidity: 87%
Barometer: 29.88 inHg , 1011.9 hPa
Clouds: Overcast
Visibility: 10 miles , 16 km
Cloud details: Partly cloudy 5000 ft
Partly cloudy 6000 ft
Overcast 9500 ft
2019/11/22 14:35 KJYO 221435Z AUTO 00000KT 10SM SCT050 SCT060 OVC095 08/06 A2988 RMK AO2
 
KHEF - Manassas Muni, Virginia, USA
Distance from station: S 17mi, 28km
Updated: Fri, 22-Nov-2019 8:56am EST
Light rain, Overcast
Light rain, Overcast
 Wind from SSW
Wind: SSW 5 mph , 7 km/h
Temperature: 50°F , 10°C
Wind Chill: 48°F , 9°C
Dew Point: 43°F , 6°C
Humidity: 76%
Barometer: 29.87 inHg , 1011.5 hPa
Summary: Light rain
Clouds: Overcast
Visibility: 10 miles , 16 km
Cloud details: Overcast 8500 ft
2019/11/22 13:56 KHEF 221356Z 20004KT 10SM -RA OVC085 10/06 A2987 RMK AO2 RAB46 SLP121 P0000 T01000056
KGAI - Gaithersburg, Maryland, USA
Distance from station: NE 26mi, 41km
Updated: Fri, 22-Nov-2019 8:56am EST
Partly cloudy
Partly cloudy
 Wind from WSW
Wind: WSW 6 mph , 9 km/h
Temperature: 52°F , 11°C
Dew Point: 39°F , 4°C
Humidity: 62%
Barometer: 29.84 inHg , 1010.5 hPa
Clouds: Partly cloudy
Visibility: 10 miles , 16 km
Cloud details: Partly cloudy 12000 ft
2019/11/22 13:56 KGAI 221356Z AUTO 25005KT 10SM SCT120 11/04 A2984 RMK AO2 SLP122 T01060044
 
KDAA - Fort Belvoir/Dav, Virginia, USA
Distance from station: SE 27mi, 44km
Updated: Fri, 22-Nov-2019 9:34am EST
Light rain, Mostly cloudy
Light rain, Mostly cloudy
 Wind from calm
Wind: Calm
Temperature: 52°F , 11°C
Dew Point: 43°F , 6°C
Humidity: 72%
Barometer: 29.87 inHg , 1011.5 hPa
Summary: Light rain
Clouds: Mostly cloudy
Visibility: 5 miles , 8 km
Cloud details: Mostly cloudy 6000 ft
Mostly cloudy 7500 ft
2019/11/22 14:34 KDAA 221434Z 00000KT 5SM -RA BKN060 BKN075 11/06 A2987 RMK AO2A
KHWY - Warrenton, Virginia, USA
Distance from station: SSW 27mi, 44km
Updated: Fri, 22-Nov-2019 9:35am EST
Rain, Overcast
Rain, Overcast
 Wind from SW
Wind: SW 3 mph , 6 km/h
Temperature: 52°F , 11°C
Dew Point: 41°F , 5°C
Humidity: 67%
Barometer: 29.88 inHg , 1011.9 hPa
Summary: Rain
Clouds: Overcast
Visibility: 10 miles , 16 km
Cloud details: Overcast 8500 ft
2019/11/22 14:35 KHWY 221435Z AUTO 23003KT 10SM RA OVC085 11/05 A2988 RMK AO2 T01120053
 
KDCA - Washington/Natl, Washington D.c., USA
Distance from station: ESE 30mi, 48km
Updated: Fri, 22-Nov-2019 9:19am EST
Light rain, Overcast
Light rain, Overcast
 Wind from S
Wind: S 6 mph , 9 km/h
Temperature: 52°F , 11°C
Dew Point: 45°F , 7°C
Humidity: 77%
Barometer: 29.87 inHg , 1011.5 hPa
Summary: Light rain
Clouds: Overcast
Visibility: 10 miles , 16 km
Cloud details: Mostly cloudy 8500 ft
Overcast 11000 ft
2019/11/22 14:19 KDCA 221419Z 19005KT 10SM -RA BKN085 OVC110 11/07 A2987 RMK AO2 RAB1355 P0000 T01110067
KFDK - Frederick, Maryland, USA
Distance from station: NNE 33mi, 53km
Updated: Fri, 22-Nov-2019 8:47am EST
Mostly cloudy
Mostly cloudy
 Wind from W
Wind: W 5 mph , 7 km/h
Temperature: 48°F , 9°C
Wind Chill: 46°F , 8°C
Dew Point: 41°F , 5°C
Humidity: 76%
Barometer: 29.86 inHg , 1011.2 hPa
Clouds: Mostly cloudy
Visibility: 10 miles , 16 km
Cloud details: Mostly cloudy 5000 ft
Mostly cloudy 7500 ft
2019/11/22 13:47 KFDK 221347Z 26004KT 10SM BKN050 BKN075 09/05 A2986
 
KOKV - Winchester Rgnl, Virginia, USA
Distance from station: WNW 33mi, 54km
Updated: Fri, 22-Nov-2019 9:35am EST
Light drizzle, Overcast
Light drizzle, Overcast
 Wind from SW
Wind: SW 13 mph , 20 km/h
Temperature: 54°F , 12°C
Dew Point: 41°F , 5°C
Humidity: 63%
Barometer: 29.84 inHg , 1010.5 hPa
Summary: Light Drizzle
Clouds: Overcast
Visibility: 10 miles , 16 km
Cloud details: Mostly cloudy 4700 ft
Mostly cloudy 7000 ft
Overcast 10000 ft
2019/11/22 14:35 KOKV 221435Z AUTO 23011KT 10SM -DZ BKN047 BKN070 OVC100 12/05 A2984 RMK AO2
KCJR - Culpeper, Virginia, USA
Distance from station: SSW 34mi, 54km
Updated: Fri, 22-Nov-2019 9:35am EST
Rain, Overcast
Rain, Overcast
 Wind from SW
Wind: SW 3 mph , 6 km/h
Temperature: 52°F , 11°C
Dew Point: 43°F , 6°C
Humidity: 72%
Barometer: 29.90 inHg , 1012.5 hPa
Summary: Rain
Clouds: Overcast
Visibility: 10 miles , 16 km
Cloud details: Overcast 9000 ft
2019/11/22 14:35 KCJR 221435Z AUTO 23003KT 10SM RA OVC090 11/06 A2990 RMK AO2 P0001 T01100058
 
KCGS - College Park, Maryland, USA
Distance from station: E 35mi, 56km
Updated: Fri, 22-Nov-2019 9:35am EST
Mostly cloudy
Mostly cloudy
 Wind from SW
Wind: SW 5 mph , 7 km/h
Temperature: 52°F , 11°C
Dew Point: 37°F , 3°C
Humidity: 58%
Barometer: 29.86 inHg , 1011.2 hPa
Clouds: Mostly cloudy
Visibility: 10 miles , 16 km
Cloud details: Mostly cloudy 6500 ft
Mostly cloudy 8000 ft
Mostly cloudy 11000 ft
2019/11/22 14:35 KCGS 221435Z AUTO 23004KT 10SM BKN065 BKN080 BKN110 11/03 A2986 RMK AO1 T01130031
KNYG - Quantico Mcaf, Virginia, USA
Distance from station: SSE 35mi, 57km
Updated: Fri, 22-Nov-2019 8:56am EST
Overcast
Overcast
 Wind from S
Wind: S 9 mph , 15 km/h
Temperature: 52°F , 11°C
Dew Point: 45°F , 7°C
Humidity: 77%
Barometer: 29.88 inHg , 1011.9 hPa
Clouds: Overcast
Visibility: 9 miles , 14 km
Cloud details: Mostly cloudy 9000 ft
Overcast 12000 ft
2019/11/22 13:56 KNYG 221356Z 19008KT 9SM BKN090 OVC120 11/07 A2988 RMK AO2 SLP118 T01110067
 
KFRR - Fort Royal, Virginia, USA
Distance from station: W 37mi, 59km
Updated: Fri, 22-Nov-2019 9:35am EST
Overcast
Overcast
 Wind from SW
Wind: SW 6 mph , 9 km/h
Temperature: 54°F , 12°C
Dew Point: 43°F , 6°C
Humidity: 67%
Barometer: 29.84 inHg , 1010.5 hPa
Clouds: Overcast
Visibility: 10 miles , 16 km
Cloud details: Overcast 10000 ft
2019/11/22 14:35 KFRR 221435Z AUTO 23005KT 10SM OVC100 12/06 A2984 RMK AO1
KMRB - Martinsburg, West Virginia, USA
Distance from station: NW 38mi, 61km
Updated: Fri, 22-Nov-2019 8:53am EST
Mostly cloudy
Mostly cloudy
 Wind from WSW
Wind: WSW 5 mph , 7 km/h
Temperature: 55°F , 13°C
Dew Point: 41°F , 5°C
Humidity: 59%
Barometer: 29.83 inHg , 1010.2 hPa
Clouds: Mostly cloudy
Visibility: 10 miles , 16 km
Cloud details: Mostly cloudy 4600 ft
Mostly cloudy 6000 ft
2019/11/22 13:53 KMRB 221353Z 24004KT 10SM BKN046 BKN060 13/05 A2983 RMK AO2 SLP102 T01330050
 
KADW - Andrews Afb, Maryland, USA
Distance from station: ESE 39mi, 63km
Updated: Fri, 22-Nov-2019 9:28am EST
Light rain, Overcast
Light rain, Overcast
 Wind from SW
Wind: SW 10 mph , 17 km/h
Temperature: 54°F , 12°C
Dew Point: 41°F , 5°C
Humidity: 63%
Barometer: 29.85 inHg , 1010.8 hPa
Summary: Light rain
Clouds: Overcast
Visibility: 10 miles , 16 km
Cloud details: Partly cloudy 5000 ft
Overcast 8000 ft
2019/11/22 14:28 KADW 221428Z AUTO 22009KT 10SM -RA SCT050 OVC080 12/05 A2985 RMK AO2 RAB28 SLP115 $
KRMN - Stafford Regnl, Virginia, USA
Distance from station: S 39mi, 63km
Updated: Fri, 22-Nov-2019 9:35am EST
Overcast
Overcast
 Wind from WSW
Wind: WSW 5 mph , 7 km/h
Temperature: 57°F , 14°C
Dew Point: 43°F , 6°C
Humidity: 59%
Barometer: 29.92 inHg , 1013.2 hPa
Clouds: Overcast
Visibility: 10 miles , 16 km
Cloud details: Partly cloudy 7000 ft
Mostly cloudy 10000 ft
Overcast 11000 ft
2019/11/22 14:35 KRMN 221435Z AUTO 25004KT 10SM SCT070 BKN100 OVC110 14/06 A2992 RMK AO2 T01400057
 
KFME - Fort Meade, Maryland, USA
Distance from station: ENE 44mi, 70km
Updated: Fri, 22-Nov-2019 9:33am EST
Partly cloudy
Partly cloudy
 Wind from W
Wind: W 10 mph , 17 km/h
Temperature: 54°F , 12°C
Dew Point: 41°F , 5°C
Humidity: 63%
Barometer: 29.87 inHg , 1011.5 hPa
Clouds: Partly cloudy
Visibility: 10 miles , 16 km
Cloud details: Partly cloudy 7500 ft
Partly cloudy 8500 ft
Partly cloudy 12000 ft
2019/11/22 14:33 KFME 221433Z AUTO 26009KT 10SM SCT075 SCT085 SCT120 12/05 A2987 RMK AO1
KRSP - Nsf Thurmont, Maryland, USA
Distance from station: N 48mi, 77km
Updated: Sat, 18-May-2019 1:54pm EDT
NOT Current

 
2019/05/18 17:54 KRSP 181754Z AUTO VRB04KTLS21/16 A3004 RMK AO2 SLP168 T02110161 10228 20172 $
 
KEZF - Fredericksb/Shan, Virginia, USA
Distance from station: S 48mi, 78km
Updated: Fri, 22-Nov-2019 9:35am EST
Overcast
Overcast
 Wind from SW
Wind: SW 9 mph , 15 km/h
Temperature: 57°F , 14°C
Dew Point: 46°F , 8°C
Humidity: 67%
Barometer: 29.87 inHg , 1011.5 hPa
Clouds: Overcast
Visibility: 10 miles , 16 km
Cloud details: Mostly cloudy 6000 ft
Mostly cloudy 9000 ft
Overcast 11000 ft
2019/11/22 14:35 KEZF 221435Z AUTO 23008KT 10SM BKN060 BKN090 OVC110 14/08 A2987 RMK AO2 T01380075
KBWI - Balto/Wash Intl, Maryland, USA
Distance from station: ENE 49mi, 80km
Updated: Fri, 22-Nov-2019 8:54am EST
Overcast
Overcast
 Wind from SSW
Wind: SSW 6 mph , 9 km/h
Temperature: 54°F , 12°C
Dew Point: 39°F , 4°C
Humidity: 58%
Barometer: 29.82 inHg , 1009.8 hPa
Clouds: Overcast
Visibility: 10 miles , 16 km
Cloud details: Few Clouds 6000 ft
Partly cloudy 11000 ft
Mostly cloudy 16000 ft
Overcast 25000 ft
2019/11/22 13:54 KBWI 221354Z 20005KT 10SM FEW060 SCT110 BKN160 OVC250 12/04 A2982 RMK AO2 SLP098 T01170039